EDT,Max TemperatureF,Mean TemperatureF,Min TemperatureF,Max Dew PointF,MeanDew PointF,Min DewpointF,Max Humidity, Mean Humidity, Min Humidity, Max Sea Level PressureIn, Mean Sea Level PressureIn, Min Sea Level PressureIn, Max VisibilityMiles, Mean VisibilityMiles, Min VisibilityMiles, Max Wind SpeedMPH, Mean Wind SpeedMPH, Max Gust SpeedMPH,PrecipitationIn, CloudCover, Events, WindDirDegrees
2013-5-1,69,52,36,41,33,22,89,52,18,30.48,30.42,30.35,,,,9,2,,0.00,,,165
2013-5-2,75,57,39,48,40,35,97,60,24,30.47,30.39,30.32,,,,7,1,,0.00,,,235
2013-5-3,66,58,48,40,34,27,74,43,24,30.45,30.39,30.34,,,,7,2,,0.00,,,105
2013-5-4,72,56,41,44,40,35,93,60,27,30.37,30.28,30.19,,,,7,2,,0.00,,,70
2013-5-5,68,52,39,41,37,30,93,62,25,30.29,30.25,30.19,,,,6,1,,0.00,,,120
2013-5-6,71,54,39,51,45,38,97,71,45,30.26,30.20,30.13,,,,7,1,,0.00,,,208
2013-5-7,75,60,46,56,50,45,96,69,41,30.17,30.12,30.07,,,,7,2,,0.00,,,27
2013-5-8,68,60,54,60,57,51,96,85,73,30.07,30.01,29.94,,,,6,2,,1.36,,,320
2013-5-9,66,60,54,55,53,52,97,83,60,29.99,29.94,29.90,,,,7,0,,0.09,,,225
2013-5-10,78,64,50,60,53,49,96,71,37,30.02,29.96,29.89,,,,6,1,,0.02,,,227
2013-5-11,71,64,59,63,60,58,97,87,73,29.90,29.76,29.71,,,,7,2,,0.40,,,215
2013-5-12,64,56,45,55,37,24,93,52,24,29.95,29.76,29.69,,,,12,3,23,0.00,,,234
2013-5-13,54,45,37,34,29,23,86,57,34,30.14,30.04,29.96,,,,10,2,20,0.00,,,278
2013-5-14,60,46,33,37,28,18,92,57,20,30.17,30.11,30.04,,,,9,1,,0.00,,,280
2013-5-15,73,56,39,55,46,36,90,65,49,30.07,29.87,29.67,,,,10,2,18,0.02,,,208
2013-5-16,82,66,51,56,50,41,97,63,25,29.86,29.77,29.73,,,,9,1,16,0.00,,,223
2013-5-17,73,62,50,49,41,37,86,53,29,30.22,30.07,29.89,,,,9,2,17,0.00,,,345
2013-5-18,64,56,48,54,48,43,90,76,46,30.30,30.27,30.22,,,,5,1,,0.00,,,0
2013-5-19,61,58,55,55,54,52,93,87,78,30.30,30.24,30.18,,,,10,2,20,0.03,,,170
2013-5-20,79,68,57,64,60,56,96,81,56,30.16,30.05,29.96,,,,8,2,,0.00,,,218
2013-5-21,87,72,59,68,64,58,97,77,51,29.98,29.90,29.82,,,,8,2,,0.00,,,221
2013-5-22,84,74,64,70,66,61,97,79,56,29.90,29.85,29.81,,,,6,2,21,0.00,,,203
2013-5-23,75,70,63,68,64,60,93,88,75,29.87,29.82,29.75,,,,8,2,,1.29,,,210
2013-5-24,63,52,43,60,48,38,97,86,73,30.00,29.85,29.70,,,,13,4,24,0.78,,,350
2013-5-25,55,49,43,40,38,33,86,68,47,30.04,29.99,29.95,,,,14,8,28,0.13,,,351
2013-5-26,64,55,44,41,35,29,85,52,28,30.23,30.07,30.00,,,,14,6,30,0.00,,,332
2013-5-27,75,55,37,48,39,33,93,59,22,30.27,30.20,30.13,,,,8,1,,0.00,,,277
2013-5-28,60,53,46,56,51,44,96,87,69,30.23,30.18,30.13,,,,5,0,,0.53,,,340
2013-5-29,82,70,57,67,62,55,97,81,54,30.13,30.06,30.01,,,,12,2,17,0.00,,,220
2013-5-30,90,76,64,66,63,58,96,69,35,30.14,30.10,30.06,,,,8,2,,0.00,,,223
2013-5-31,91,78,64,69,63,61,96,67,38,30.12,30.06,29.99,,,,7,1,,0.00,,,218